Time;durP1;ratioP1;P1;durP2;ratioP2;P2;SDS_P1;SDS_P2;PMS_P1;PMS_P2;Temp;Humidity;BMP_temperature;BMP_pressure;BME280_temperature;BME280_humidity;BME280_pressure;Samples;Min_cycle;Max_cycle;Signal;HPM_P1;HPM_P2
2021/09/30 00:01:03;;;;;;;0.75;0.40;;;;;16.50;102125.00;;;;5048028;28;20202;-77
2021/09/30 00:03:31;;;;;;;1.17;0.30;;;;;16.40;102126.00;;;;5046719;28;20701;-77
2021/09/30 00:05:58;;;;;;;0.93;0.28;;;;;16.40;102132.00;;;;5046331;28;20214;-77
2021/09/30 00:08:25;;;;;;;0.55;0.20;;;;;16.40;102127.00;;;;5048246;28;20210;-77
2021/09/30 00:10:59;;;;;;;4.63;0.50;;;;;16.40;102130.00;;;;5047252;28;20199;-77
2021/09/30 00:32:52;;;;;;;0.95;0.22;;;;;16.30;102147.00;;;;5051223;28;20230;-77
2021/09/30 00:46:40;;;;;;;0.50;0.30;;;;;16.20;102167.00;;;;5061933;28;20207;-77
2021/09/30 00:49:16;;;;;;;1.42;0.32;;;;;16.20;102166.00;;;;5052227;28;20564;-77
2021/09/30 00:51:50;;;;;;;0.43;0.25;;;;;16.20;102167.00;;;;5051148;28;20677;-77
2021/09/30 01:45:41;;;;;;;2.72;0.28;;;;;15.90;102173.00;;;;5060028;28;20586;-77
2021/09/30 02:19:54;;;;;;;0.88;0.30;;;;;15.60;102172.00;;;;5051303;28;20238;-77
2021/09/30 02:22:40;;;;;;;1.20;0.32;;;;;15.60;102173.00;;;;5050102;28;20223;-77
2021/09/30 02:28:17;;;;;;;0.40;0.40;;;;;15.50;102175.00;;;;5048952;28;20257;-76
2021/09/30 02:58:42;;;;;;;0.70;0.32;;;;;15.30;102182.00;;;;5048910;28;20245;-77
2021/09/30 03:01:12;;;;;;;0.95;0.50;;;;;15.20;102176.00;;;;5052887;28;20195;-77
2021/09/30 03:03:41;;;;;;;1.95;0.70;;;;;15.20;102171.00;;;;5049348;28;20579;-77
2021/09/30 03:06:10;;;;;;;1.73;0.70;;;;;15.20;102176.00;;;;5056627;28;20192;-77
2021/09/30 03:08:42;;;;;;;0.98;0.45;;;;;15.20;102182.00;;;;5068518;28;20190;-77
2021/09/30 03:11:11;;;;;;;2.47;0.50;;;;;15.20;102191.00;;;;5048726;28;20206;-77
2021/09/30 03:13:40;;;;;;;1.13;0.30;;;;;15.20;102182.00;;;;5048736;28;20195;-77
2021/09/30 03:16:13;;;;;;;1.25;0.30;;;;;15.20;102190.00;;;;5054913;28;20646;-77
2021/09/30 03:18:55;;;;;;;1.27;0.40;;;;;15.20;102188.00;;;;5048757;28;20221;-77
2021/09/30 03:24:12;;;;;;;1.60;0.40;;;;;15.10;102189.00;;;;5062066;28;20198;-77
2021/09/30 03:26:40;;;;;;;0.60;0.40;;;;;15.10;102191.00;;;;5055690;28;20198;-77
2021/09/30 03:29:09;;;;;;;0.65;0.30;;;;;15.10;102190.00;;;;5051195;28;20203;-76
2021/09/30 03:31:37;;;;;;;7.00;1.00;;;;;15.10;102193.00;;;;5061893;28;20191;-77
2021/09/30 03:34:05;;;;;;;1.52;0.60;;;;;15.10;102193.00;;;;5059072;28;20203;-76
2021/09/30 03:36:35;;;;;;;0.40;0.30;;;;;15.10;102190.00;;;;5048779;28;20195;-77
2021/09/30 03:39:03;;;;;;;1.80;0.60;;;;;15.10;102194.00;;;;5048730;28;20592;-76
2021/09/30 03:41:30;;;;;;;1.25;0.52;;;;;15.10;102199.00;;;;5057515;28;20231;-76
2021/09/30 03:43:58;;;;;;;0.55;0.40;;;;;15.00;102196.00;;;;5053893;28;20219;-77
2021/09/30 03:46:27;;;;;;;1.23;0.40;;;;;15.00;102197.00;;;;5048792;28;20191;-77
2021/09/30 03:48:56;;;;;;;0.90;0.50;;;;;15.00;102204.00;;;;5048261;28;20219;-76
2021/09/30 03:51:33;;;;;;;0.95;0.40;;;;;15.00;102200.00;;;;5047616;28;20195;-76
2021/09/30 03:54:13;;;;;;;1.02;0.40;;;;;15.00;102211.00;;;;5047671;28;20199;-76
2021/09/30 03:56:58;;;;;;;0.80;0.45;;;;;15.00;102208.00;;;;5048002;28;20187;-77
2021/09/30 03:59:25;;;;;;;1.45;0.80;;;;;14.90;102214.00;;;;5048451;28;20222;-76
2021/09/30 04:01:57;;;;;;;1.58;0.68;;;;;14.90;102214.00;;;;5054200;28;20253;-76
2021/09/30 04:04:26;;;;;;;0.70;0.50;;;;;14.90;102218.00;;;;5048379;28;20653;-76
2021/09/30 04:06:54;;;;;;;0.57;0.40;;;;;14.90;102218.00;;;;5047760;28;20195;-76
2021/09/30 04:09:27;;;;;;;0.82;0.40;;;;;14.80;102223.00;;;;5048527;28;20199;-76
2021/09/30 04:11:56;;;;;;;0.70;0.63;;;;;14.80;102226.00;;;;5047167;28;20253;-77
2021/09/30 04:14:24;;;;;;;1.90;0.35;;;;;14.80;102223.00;;;;5049003;28;20191;-76
2021/09/30 04:16:51;;;;;;;0.57;0.43;;;;;14.80;102235.00;;;;5055116;28;20213;-76
2021/09/30 04:19:20;;;;;;;0.88;0.50;;;;;14.80;102230.00;;;;5059319;28;20218;-77
2021/09/30 04:21:48;;;;;;;0.68;0.50;;;;;14.70;102233.00;;;;5047363;28;20199;-76
2021/09/30 04:24:16;;;;;;;1.42;0.70;;;;;14.70;102235.00;;;;5054538;28;20184;-77
2021/09/30 04:26:46;;;;;;;1.00;0.57;;;;;14.70;102231.00;;;;5047531;28;20210;-77
2021/09/30 04:29:13;;;;;;;1.02;0.57;;;;;14.70;102239.00;;;;5068119;28;20238;-77
2021/09/30 04:31:41;;;;;;;1.67;0.82;;;;;14.70;102233.00;;;;5062110;28;20578;-77
2021/09/30 04:34:08;;;;;;;2.78;0.60;;;;;14.70;102230.00;;;;5051320;28;20274;-76
2021/09/30 04:36:36;;;;;;;1.73;0.50;;;;;14.70;102243.00;;;;5063720;28;20210;-76
2021/09/30 04:39:03;;;;;;;1.67;0.73;;;;;14.70;102240.00;;;;5049049;28;20223;-77
2021/09/30 04:41:31;;;;;;;1.35;0.55;;;;;14.70;102241.00;;;;5048145;28;20250;-76
2021/09/30 04:44:00;;;;;;;2.10;0.90;;;;;14.70;102250.00;;;;5057519;28;20210;-77
2021/09/30 04:46:27;;;;;;;1.77;0.80;;;;;14.70;102243.00;;;;5055286;28;20196;-76
2021/09/30 04:48:54;;;;;;;1.73;0.90;;;;;14.70;102245.00;;;;5052947;28;20199;-77
2021/09/30 04:51:21;;;;;;;0.77;0.32;;;;;14.70;102256.00;;;;5052248;28;20199;-77
2021/09/30 04:53:48;;;;;;;0.80;0.55;;;;;14.70;102249.00;;;;5054346;28;20200;-76
2021/09/30 04:56:16;;;;;;;2.63;0.65;;;;;14.80;102250.00;;;;5056147;28;20260;-76
2021/09/30 04:58:43;;;;;;;1.83;0.93;;;;;14.80;102262.00;;;;5052369;28;20199;-77
2021/09/30 05:01:12;;;;;;;4.10;0.93;;;;;14.80;102257.00;;;;5051866;28;20231;-77
2021/09/30 05:03:39;;;;;;;5.35;1.67;;;;;14.80;102249.00;;;;5050058;28;20196;-76
2021/09/30 05:06:06;;;;;;;1.98;0.93;;;;;14.80;102257.00;;;;5057996;28;20207;-77
2021/09/30 05:08:34;;;;;;;2.20;0.93;;;;;14.80;102254.00;;;;5056886;28;20195;-77
2021/09/30 05:11:03;;;;;;;2.90;0.90;;;;;14.80;102256.00;;;;5056323;28;20588;-76
2021/09/30 05:13:38;;;;;;;2.10;0.65;;;;;14.80;102257.00;;;;5051145;28;20207;-77
2021/09/30 05:16:07;;;;;;;2.33;0.80;;;;;14.80;102259.00;;;;5054344;28;20912;-76
2021/09/30 05:18:39;;;;;;;6.60;0.90;;;;;14.80;102265.00;;;;5060793;28;20201;-76
2021/09/30 05:21:07;;;;;;;4.20;1.08;;;;;14.90;102264.00;;;;5051337;28;20312;-76
2021/09/30 05:23:34;;;;;;;1.70;0.60;;;;;14.90;102262.00;;;;5065563;28;20688;-76
2021/09/30 05:26:02;;;;;;;3.58;0.80;;;;;14.90;102259.00;;;;5060911;28;20226;-75
2021/09/30 05:28:29;;;;;;;2.50;0.65;;;;;14.90;102265.00;;;;5067682;28;20203;-76
2021/09/30 05:30:57;;;;;;;1.98;0.57;;;;;14.90;102261.00;;;;5063685;28;20202;-76
2021/09/30 05:33:24;;;;;;;1.63;0.63;;;;;14.90;102259.00;;;;5055000;28;20665;-76
2021/09/30 05:35:53;;;;;;;2.72;0.47;;;;;14.90;102260.00;;;;5052319;28;20210;-76
2021/09/30 05:38:21;;;;;;;1.63;0.63;;;;;15.00;102262.00;;;;5053617;28;20196;-76
2021/09/30 05:40:49;;;;;;;3.25;0.57;;;;;15.00;102262.00;;;;5049143;28;20226;-76
2021/09/30 05:43:21;;;;;;;1.85;1.00;;;;;15.00;102255.00;;;;5058598;28;20700;-75
2021/09/30 05:45:53;;;;;;;4.90;0.50;;;;;15.00;102260.00;;;;5060534;28;20290;-77
2021/09/30 05:48:20;;;;;;;3.50;1.00;;;;;15.00;102260.00;;;;5060290;28;20203;-76
2021/09/30 05:50:48;;;;;;;2.28;0.80;;;;;15.00;102258.00;;;;5058310;28;20203;-76
2021/09/30 05:53:18;;;;;;;1.67;0.45;;;;;15.00;102254.00;;;;5057662;28;20637;-76
2021/09/30 05:55:45;;;;;;;1.73;0.70;;;;;15.10;102255.00;;;;5053204;28;20202;-77
2021/09/30 05:58:13;;;;;;;4.00;0.85;;;;;15.10;102260.00;;;;5062736;28;20211;-77
2021/09/30 06:00:49;;;;;;;3.20;0.70;;;;;15.10;102264.00;;;;5057030;28;20215;-77
2021/09/30 06:09:37;;;;;;;1.45;0.60;;;;;15.20;102271.00;;;;5052413;28;20230;-76
2021/09/30 06:12:10;;;;;;;0.80;0.40;;;;;15.20;102270.00;;;;5053157;28;20717;-77
2021/09/30 06:14:39;;;;;;;2.25;0.88;;;;;15.30;102267.00;;;;5050273;28;20207;-77
2021/09/30 06:17:06;;;;;;;2.80;0.82;;;;;15.30;102270.00;;;;5051196;28;20227;-77
2021/09/30 06:19:34;;;;;;;4.68;1.00;;;;;15.30;102273.00;;;;5058780;28;20231;-77
2021/09/30 06:22:04;;;;;;;1.27;0.73;;;;;15.30;102279.00;;;;5053337;28;20214;-79
2021/09/30 06:24:34;;;;;;;2.30;0.60;;;;;15.40;102273.00;;;;5058287;28;20204;-79
2021/09/30 06:27:01;;;;;;;3.33;0.95;;;;;15.40;102275.00;;;;5048069;28;20207;-79
2021/09/30 06:29:29;;;;;;;1.35;0.70;;;;;15.40;102277.00;;;;5048794;28;20203;-79
2021/09/30 06:31:56;;;;;;;1.25;0.60;;;;;15.50;102272.00;;;;5050744;28;20537;-78
2021/09/30 06:34:23;;;;;;;1.88;0.40;;;;;15.50;102269.00;;;;5062786;28;20191;-78
2021/09/30 06:36:51;;;;;;;1.92;0.68;;;;;15.50;102273.00;;;;5052374;28;20193;-78
2021/09/30 06:39:18;;;;;;;1.48;0.50;;;;;15.60;102282.00;;;;5064953;28;20270;-78
2021/09/30 06:41:47;;;;;;;6.72;1.27;;;;;15.60;102275.00;;;;5048599;28;20227;-79
2021/09/30 06:44:14;;;;;;;1.65;0.90;;;;;15.70;102283.00;;;;5048899;28;20225;-79
2021/09/30 06:46:41;;;;;;;3.15;0.88;;;;;15.70;102283.00;;;;5046829;28;22428;-79
2021/09/30 06:49:08;;;;;;;1.52;0.47;;;;;15.80;102281.00;;;;5048593;28;20196;-79
2021/09/30 06:51:36;;;;;;;2.25;0.82;;;;;15.80;102279.00;;;;5048046;28;20729;-79
2021/09/30 06:54:04;;;;;;;3.85;1.10;;;;;15.90;102287.00;;;;5050989;28;20226;-78
2021/09/30 06:56:32;;;;;;;4.05;0.90;;;;;15.90;102297.00;;;;5048906;28;20543;-80
2021/09/30 06:59:05;;;;;;;4.82;1.50;;;;;15.90;102286.00;;;;5048697;28;20221;-78
2021/09/30 07:01:35;;;;;;;2.25;1.30;;;;;16.00;102295.00;;;;5047752;28;20223;-79
2021/09/30 07:04:06;;;;;;;3.13;1.02;;;;;16.00;102296.00;;;;5048966;28;20214;-79
2021/09/30 07:06:33;;;;;;;2.70;1.15;;;;;16.10;102302.00;;;;5051697;28;20213;-79
2021/09/30 07:09:00;;;;;;;4.00;1.30;;;;;16.10;102293.00;;;;5054312;28;20206;-79
2021/09/30 07:11:28;;;;;;;2.38;1.23;;;;;16.20;102292.00;;;;5056131;28;20554;-79
2021/09/30 07:13:55;;;;;;;2.78;1.10;;;;;16.20;102301.00;;;;5047727;28;20199;-79
2021/09/30 07:16:24;;;;;;;2.08;1.38;;;;;16.20;102300.00;;;;5050001;28;20214;-79
2021/09/30 07:18:51;;;;;;;2.47;1.05;;;;;16.30;102295.00;;;;5050691;28;20199;-78
2021/09/30 07:21:19;;;;;;;4.07;1.50;;;;;16.30;102298.00;;;;5049233;28;20238;-79
2021/09/30 07:23:46;;;;;;;3.40;1.38;;;;;16.40;102297.00;;;;5051664;28;20215;-79
2021/09/30 07:26:14;;;;;;;3.15;1.60;;;;;16.40;102299.00;;;;5064115;28;20691;-79
2021/09/30 07:28:41;;;;;;;14.27;2.33;;;;;16.50;102307.00;;;;5053686;28;20223;-79
2021/09/30 07:31:08;;;;;;;1.48;1.05;;;;;16.50;102309.00;;;;5055407;28;20204;-79
2021/09/30 07:33:37;;;;;;;2.80;1.50;;;;;16.60;102312.00;;;;5054608;28;20192;-79
2021/09/30 07:36:05;;;;;;;2.85;1.13;;;;;16.60;102307.00;;;;5049961;28;20243;-79
2021/09/30 07:38:33;;;;;;;3.08;0.90;;;;;16.70;102320.00;;;;5057640;28;20191;-79
2021/09/30 07:41:00;;;;;;;1.70;1.10;;;;;16.80;102309.00;;;;5055852;28;20223;-79
2021/09/30 07:43:28;;;;;;;2.53;1.25;;;;;16.80;102309.00;;;;5056725;28;20227;-79
2021/09/30 07:45:55;;;;;;;3.40;1.35;;;;;16.90;102312.00;;;;5058118;28;20196;-79
2021/09/30 07:48:22;;;;;;;3.53;1.63;;;;;17.00;102322.00;;;;5049153;28;20222;-79
2021/09/30 07:50:51;;;;;;;2.97;1.40;;;;;17.00;102316.00;;;;5052371;28;20194;-79
2021/09/30 07:53:18;;;;;;;4.60;1.38;;;;;17.10;102318.00;;;;5054338;28;20206;-79
2021/09/30 07:55:46;;;;;;;3.92;1.55;;;;;17.10;102325.00;;;;5061064;28;20199;-79
2021/09/30 07:58:14;;;;;;;4.47;1.70;;;;;17.10;102328.00;;;;5053126;28;20202;-79
2021/09/30 08:00:43;;;;;;;4.80;1.23;;;;;17.20;102328.00;;;;5050309;28;20234;-79
2021/09/30 08:03:11;;;;;;;3.10;1.50;;;;;17.20;102330.00;;;;5056818;28;20688;-79
2021/09/30 08:05:39;;;;;;;2.53;1.35;;;;;17.30;102327.00;;;;5050833;28;20195;-79
2021/09/30 08:08:09;;;;;;;2.92;1.33;;;;;17.40;102331.00;;;;5047966;28;20223;-79
2021/09/30 08:10:37;;;;;;;5.53;1.90;;;;;17.50;102332.00;;;;5058959;28;20195;-79
2021/09/30 08:13:05;;;;;;;2.85;1.98;;;;;17.50;102330.00;;;;5062544;28;20286;-79
2021/09/30 08:15:33;;;;;;;5.32;1.25;;;;;17.60;102332.00;;;;5056988;28;20683;-79
2021/09/30 08:18:00;;;;;;;4.28;1.95;;;;;17.70;102325.00;;;;5054187;28;20213;-79
2021/09/30 08:20:27;;;;;;;5.57;1.65;;;;;17.70;102324.00;;;;5058466;28;20226;-79
2021/09/30 08:22:56;;;;;;;3.45;1.15;;;;;17.80;102330.00;;;;5067969;28;20191;-79
2021/09/30 08:25:25;;;;;;;3.60;1.58;;;;;17.80;102332.00;;;;5066588;28;20226;-79
2021/09/30 08:27:52;;;;;;;4.47;1.60;;;;;17.90;102336.00;;;;5066378;28;20191;-78
2021/09/30 08:30:19;;;;;;;4.65;1.30;;;;;18.00;102331.00;;;;5058670;28;20210;-79
2021/09/30 08:32:46;;;;;;;3.53;1.40;;;;;18.00;102328.00;;;;5051140;28;20227;-80
2021/09/30 08:35:14;;;;;;;3.35;1.77;;;;;18.10;102326.00;;;;5059999;28;20200;-79
2021/09/30 08:37:41;;;;;;;2.88;1.60;;;;;18.10;102324.00;;;;5057805;28;20194;-79
2021/09/30 08:40:09;;;;;;;3.50;1.23;;;;;18.10;102323.00;;;;5061399;28;20206;-79
2021/09/30 08:42:38;;;;;;;4.90;1.90;;;;;18.10;102325.00;;;;5058310;28;20242;-81
2021/09/30 08:45:07;;;;;;;1.77;1.02;;;;;18.20;102323.00;;;;5052857;28;20203;-80
2021/09/30 08:47:35;;;;;;;3.97;1.77;;;;;18.20;102326.00;;;;5062195;28;20188;-78
2021/09/30 08:50:02;;;;;;;2.80;1.65;;;;;18.30;102332.00;;;;5060199;28;20245;-79
2021/09/30 08:52:29;;;;;;;3.30;1.08;;;;;18.30;102329.00;;;;5051492;28;20200;-81
2021/09/30 08:54:57;;;;;;;2.75;1.40;;;;;18.40;102326.00;;;;5057118;28;20206;-80
2021/09/30 08:57:24;;;;;;;3.25;1.15;;;;;18.40;102325.00;;;;5062141;28;20282;-80
2021/09/30 09:00:07;;;;;;;3.67;1.50;;;;;18.40;102329.00;;;;5059422;28;20653;-80
2021/09/30 09:02:41;;;;;;;2.95;1.25;;;;;18.50;102322.00;;;;5070247;28;20205;-80
2021/09/30 09:05:09;;;;;;;2.80;1.35;;;;;18.60;102325.00;;;;5055443;28;20214;-80
2021/09/30 09:07:37;;;;;;;2.58;1.33;;;;;18.70;102327.00;;;;5058132;28;20198;-79
2021/09/30 09:10:09;;;;;;;5.18;2.05;;;;;18.70;102321.00;;;;5054644;28;20261;-80
2021/09/30 09:12:37;;;;;;;1.95;1.15;;;;;18.80;102322.00;;;;5055299;28;20195;-80
2021/09/30 09:15:06;;;;;;;2.63;1.13;;;;;18.90;102321.00;;;;5062407;28;20206;-81
2021/09/30 09:17:34;;;;;;;3.60;1.20;;;;;18.90;102314.00;;;;5050723;28;20203;-80
2021/09/30 09:20:03;;;;;;;2.67;1.20;;;;;19.00;102326.00;;;;5050651;28;20204;-81
2021/09/30 09:22:32;;;;;;;6.75;1.67;;;;;19.10;102321.00;;;;5050793;28;20223;-80
2021/09/30 09:25:04;;;;;;;3.03;0.95;;;;;19.20;102322.00;;;;5055068;28;20192;-80
2021/09/30 09:27:47;;;;;;;3.15;0.90;;;;;19.20;102325.00;;;;5051619;28;20565;-81
2021/09/30 09:30:32;;;;;;;2.58;1.13;;;;;19.20;102326.00;;;;5051689;28;20191;-80
2021/09/30 09:33:05;;;;;;;3.42;1.17;;;;;19.40;102343.00;;;;5048975;28;20203;-79
2021/09/30 09:35:51;;;;;;;1.35;0.73;;;;;19.30;102333.00;;;;5050918;28;20294;-80
2021/09/30 09:38:20;;;;;;;1.75;0.77;;;;;19.50;102328.00;;;;5054288;28;20665;-79
2021/09/30 09:40:48;;;;;;;2.90;0.88;;;;;19.50;102318.00;;;;5066313;28;20223;-79
2021/09/30 09:43:31;;;;;;;3.35;0.85;;;;;19.50;102326.00;;;;5050358;28;20231;-78
2021/09/30 09:46:01;;;;;;;4.40;0.70;;;;;19.60;102327.00;;;;5062615;28;20198;-81
2021/09/30 09:48:32;;;;;;;3.97;0.82;;;;;19.60;102325.00;;;;5066265;28;20192;-79
2021/09/30 09:50:59;;;;;;;2.47;0.70;;;;;19.70;102320.00;;;;5066797;28;20196;-80
2021/09/30 09:53:28;;;;;;;5.07;1.75;;;;;19.70;102316.00;;;;5051966;28;20286;-81
2021/09/30 09:56:16;;;;;;;2.80;0.60;;;;;19.60;102315.00;;;;5051301;28;20196;-80
2021/09/30 09:58:49;;;;;;;1.35;0.60;;;;;19.70;102318.00;;;;5055772;28;20701;-79
2021/09/30 10:01:24;;;;;;;3.75;0.50;;;;;19.70;102312.00;;;;5066306;28;20273;-80
2021/09/30 10:03:58;;;;;;;4.97;1.35;;;;;19.70;102312.00;;;;5063546;28;20201;-80
2021/09/30 10:06:25;;;;;;;1.83;0.70;;;;;19.80;102314.00;;;;5054785;28;20653;-80
2021/09/30 10:08:53;;;;;;;2.60;0.65;;;;;19.80;102310.00;;;;5054227;28;20218;-79
2021/09/30 10:11:21;;;;;;;5.47;1.00;;;;;19.80;102316.00;;;;5057628;28;20229;-80
2021/09/30 10:13:49;;;;;;;5.13;0.90;;;;;19.80;102314.00;;;;5069440;28;20191;-80
2021/09/30 10:16:24;;;;;;;2.05;0.82;;;;;19.80;102319.00;;;;5067569;28;20196;-80
2021/09/30 10:18:52;;;;;;;3.55;0.65;;;;;19.90;102318.00;;;;5068768;28;20231;-80
2021/09/30 10:21:20;;;;;;;1.02;0.65;;;;;19.90;102324.00;;;;5054915;28;20279;-80
2021/09/30 10:23:53;;;;;;;2.67;0.30;;;;;19.80;102313.00;;;;5053944;28;20207;-80
2021/09/30 10:26:25;;;;;;;2.90;0.40;;;;;19.80;102310.00;;;;5053407;28;20202;-80
2021/09/30 10:28:52;;;;;;;1.63;0.63;;;;;19.90;102319.00;;;;5060223;28;20213;-80
2021/09/30 10:31:27;;;;;;;1.63;0.47;;;;;19.80;102306.00;;;;5062436;28;20203;-80
2021/09/30 10:33:57;;;;;;;1.70;0.65;;;;;19.90;102317.00;;;;5056755;28;20205;-81
2021/09/30 10:36:37;;;;;;;3.00;0.70;;;;;19.80;102308.00;;;;5066270;28;20229;-80
2021/09/30 10:39:25;;;;;;;1.30;0.57;;;;;19.80;102301.00;;;;5063064;28;20203;-80
2021/09/30 10:41:54;;;;;;;3.92;0.70;;;;;19.90;102316.00;;;;5060901;28;20855;-80
2021/09/30 10:44:25;;;;;;;1.23;0.57;;;;;19.90;102305.00;;;;5058523;28;20211;-81
2021/09/30 10:46:57;;;;;;;0.93;0.57;;;;;20.00;102307.00;;;;5047840;28;20669;-81
2021/09/30 10:49:36;;;;;;;1.42;0.80;;;;;19.90;102301.00;;;;5057768;28;20206;-78
2021/09/30 10:52:15;;;;;;;3.28;0.73;;;;;19.90;102300.00;;;;5060384;28;20201;-78
2021/09/30 10:54:46;;;;;;;2.03;0.95;;;;;20.00;102299.00;;;;5048586;28;20206;-78
2021/09/30 10:57:39;;;;;;;3.63;0.93;;;;;19.90;102304.00;;;;5068547;28;20199;-79
2021/09/30 11:00:10;;;;;;;1.42;0.57;;;;;20.00;102308.00;;;;5056756;28;20198;-80
2021/09/30 11:03:22;;;;;;;2.53;0.70;;;;;20.00;102306.00;;;;5047565;28;20224;-80
2021/09/30 11:06:15;;;;;;;1.85;0.70;;;;;19.90;102306.00;;;;5047577;28;20203;-80
2021/09/30 11:08:47;;;;;;;3.38;0.90;;;;;20.10;102309.00;;;;5052837;28;20191;-80
2021/09/30 11:11:22;;;;;;;3.75;0.85;;;;;20.10;102299.00;;;;5052703;28;20241;-80
2021/09/30 11:14:14;;;;;;;2.78;0.73;;;;;20.10;102299.00;;;;5054041;28;20198;-81
2021/09/30 11:16:45;;;;;;;1.95;1.33;;;;;20.20;102301.00;;;;5058331;28;20206;-81
2021/09/30 11:19:27;;;;;;;2.92;0.80;;;;;20.10;102304.00;;;;5060370;28;20202;-81
2021/09/30 11:21:55;;;;;;;3.63;0.98;;;;;20.30;102298.00;;;;5051497;28;20289;-81
2021/09/30 11:24:26;;;;;;;3.35;1.10;;;;;20.30;102300.00;;;;5064052;28;20202;-82
2021/09/30 11:27:14;;;;;;;2.45;0.82;;;;;20.20;102296.00;;;;5061613;28;20207;-81
2021/09/30 11:29:42;;;;;;;3.20;1.08;;;;;20.40;102293.00;;;;5057279;28;20195;-81
2021/09/30 11:32:28;;;;;;;5.38;1.38;;;;;20.20;102296.00;;;;5053867;28;20207;-80
2021/09/30 11:35:02;;;;;;;1.35;0.60;;;;;20.30;102297.00;;;;5053263;28;20199;-80
2021/09/30 11:37:40;;;;;;;1.92;0.93;;;;;20.40;102291.00;;;;5059555;28;20195;-80
2021/09/30 11:40:12;;;;;;;3.25;1.20;;;;;20.40;102289.00;;;;5058992;28;20282;-80
2021/09/30 11:42:41;;;;;;;1.92;0.93;;;;;20.40;102291.00;;;;5052292;28;20315;-81
2021/09/30 11:45:12;;;;;;;3.03;0.85;;;;;20.40;102281.00;;;;5063103;28;20199;-81
2021/09/30 11:47:41;;;;;;;2.95;1.08;;;;;20.40;102282.00;;;;5067294;28;20187;-81
2021/09/30 11:50:17;;;;;;;2.47;0.80;;;;;20.30;102281.00;;;;5062224;28;20961;-81
2021/09/30 11:52:44;;;;;;;3.70;1.25;;;;;20.40;102279.00;;;;5054565;28;20194;-80
2021/09/30 11:55:15;;;;;;;4.10;1.10;;;;;20.30;102286.00;;;;5049146;28;20530;-81
2021/09/30 11:57:53;;;;;;;1.52;0.90;;;;;20.30;102284.00;;;;5056121;28;20665;-82
2021/09/30 12:00:21;;;;;;;3.67;1.00;;;;;20.30;102284.00;;;;5051135;28;20203;-80
2021/09/30 12:02:57;;;;;;;2.78;0.93;;;;;20.20;102275.00;;;;5067226;28;20349;-80
2021/09/30 12:05:29;;;;;;;3.30;1.27;;;;;20.30;102272.00;;;;5065417;28;20252;-80
2021/09/30 12:07:58;;;;;;;2.28;0.50;;;;;20.30;102270.00;;;;5067820;28;20207;-80
2021/09/30 12:10:25;;;;;;;2.72;0.88;;;;;20.40;102269.00;;;;5063312;28;20195;-81
2021/09/30 12:12:53;;;;;;;1.95;0.73;;;;;20.40;102260.00;;;;5055621;28;20199;-81
2021/09/30 12:15:20;;;;;;;2.60;0.40;;;;;20.40;102255.00;;;;5060842;28;20203;-80
2021/09/30 12:17:48;;;;;;;1.60;0.90;;;;;20.50;102258.00;;;;5067084;28;20191;-81
2021/09/30 12:20:20;;;;;;;1.92;0.75;;;;;20.50;102248.00;;;;5054154;28;20191;-80
2021/09/30 12:22:51;;;;;;;2.25;0.40;;;;;20.50;102248.00;;;;5054730;28;20223;-81
2021/09/30 12:25:23;;;;;;;1.50;0.50;;;;;20.50;102259.00;;;;5068623;28;20206;-81
2021/09/30 12:27:52;;;;;;;4.15;0.98;;;;;20.50;102255.00;;;;5058075;28;20196;-80
2021/09/30 12:30:22;;;;;;;2.00;0.50;;;;;20.50;102249.00;;;;5040311;28;20204;-80
2021/09/30 12:32:51;;;;;;;1.35;0.40;;;;;20.50;102243.00;;;;5031395;28;20671;-81
2021/09/30 12:35:21;;;;;;;1.58;0.50;;;;;20.50;102240.00;;;;5045873;28;20282;-81
2021/09/30 12:37:53;;;;;;;5.38;0.70;;;;;20.40;102237.00;;;;5051379;28;20194;-80
2021/09/30 12:40:26;;;;;;;2.25;0.70;;;;;20.40;102232.00;;;;5030135;28;20203;-80
2021/09/30 12:43:04;;;;;;;4.63;0.68;;;;;20.40;102232.00;;;;5037226;28;20248;-81
2021/09/30 12:45:32;;;;;;;2.53;0.68;;;;;20.40;102245.00;;;;5035487;28;20196;-82
2021/09/30 12:48:06;;;;;;;1.83;0.55;;;;;20.40;102245.00;;;;5044878;28;20459;-82
2021/09/30 12:50:37;;;;;;;1.83;0.60;;;;;20.40;102232.00;;;;5032009;28;20208;-81
2021/09/30 12:53:07;;;;;;;5.38;1.27;;;;;20.40;102232.00;;;;5032491;28;20208;-81
2021/09/30 12:55:35;;;;;;;1.60;0.45;;;;;20.30;102233.00;;;;5040304;28;20202;-81
2021/09/30 12:58:03;;;;;;;4.00;0.73;;;;;20.30;102235.00;;;;5037731;28;20204;-80
2021/09/30 13:00:36;;;;;;;2.67;0.52;;;;;20.20;102233.00;;;;5036952;28;20282;-80
2021/09/30 13:03:14;;;;;;;5.03;0.60;;;;;20.20;102233.00;;;;5046558;28;20299;-79
2021/09/30 13:05:50;;;;;;;2.00;0.68;;;;;20.20;102219.00;;;;5042235;28;20207;-78
2021/09/30 13:08:40;;;;;;;2.58;0.65;;;;;20.10;102226.00;;;;5037129;28;20200;-77
2021/09/30 13:11:31;;;;;;;3.38;0.85;;;;;20.10;102219.00;;;;5031359;28;20200;-76
2021/09/30 13:14:20;;;;;;;1.88;0.60;;;;;20.10;102215.00;;;;5040720;28;20559;-78
2021/09/30 13:16:50;;;;;;;3.40;0.90;;;;;20.20;102212.00;;;;5030551;28;20287;-79
2021/09/30 13:19:19;;;;;;;1.45;0.60;;;;;20.20;102202.00;;;;5033813;28;20204;-79
2021/09/30 13:21:58;;;;;;;4.85;0.80;;;;;20.10;102194.00;;;;5039550;28;20228;-79
2021/09/30 13:24:27;;;;;;;2.25;0.60;;;;;20.20;102192.00;;;;5047180;28;20199;-78
2021/09/30 13:26:54;;;;;;;4.35;0.82;;;;;20.20;102190.00;;;;5036698;28;20211;-79
2021/09/30 13:29:22;;;;;;;1.90;0.40;;;;;20.20;102181.00;;;;5032559;28;20207;-79
2021/09/30 13:31:51;;;;;;;3.08;0.73;;;;;20.20;102183.00;;;;5037503;28;20274;-79
2021/09/30 13:34:19;;;;;;;4.03;0.60;;;;;20.20;102177.00;;;;5037830;28;20214;-80
2021/09/30 13:36:47;;;;;;;1.77;0.47;;;;;20.20;102185.00;;;;5034598;28;20238;-79
2021/09/30 13:39:14;;;;;;;1.70;0.63;;;;;20.20;102180.00;;;;5038085;28;20200;-79
2021/09/30 13:41:43;;;;;;;1.63;0.50;;;;;20.10;102176.00;;;;5038306;28;21173;-79
2021/09/30 13:44:10;;;;;;;1.33;0.35;;;;;20.10;102169.00;;;;5032634;28;20224;-79
2021/09/30 13:46:38;;;;;;;1.38;0.40;;;;;20.10;102169.00;;;;5029250;28;20203;-79
2021/09/30 13:49:06;;;;;;;2.40;0.52;;;;;20.10;102155.00;;;;5036361;28;20196;-78
2021/09/30 13:51:34;;;;;;;1.15;0.45;;;;;20.10;102159.00;;;;5042293;28;20200;-77
2021/09/30 13:54:01;;;;;;;1.83;0.32;;;;;20.10;102156.00;;;;5041987;28;20203;-76
2021/09/30 13:56:30;;;;;;;1.70;0.40;;;;;20.10;102156.00;;;;5031812;28;21000;-77
2021/09/30 13:58:59;;;;;;;3.65;0.50;;;;;20.00;102149.00;;;;5035018;28;20191;-77
2021/09/30 14:01:26;;;;;;;1.63;0.43;;;;;20.00;102153.00;;;;5036726;28;20574;-77
2021/09/30 14:03:53;;;;;;;2.00;0.50;;;;;20.00;102148.00;;;;5035308;28;20438;-75
2021/09/30 14:06:21;;;;;;;2.05;0.47;;;;;20.00;102143.00;;;;5042738;28;20201;-77
2021/09/30 14:08:49;;;;;;;4.57;0.82;;;;;20.00;102138.00;;;;5037130;28;20195;-76
2021/09/30 14:11:17;;;;;;;1.58;0.47;;;;;20.00;102143.00;;;;5049246;28;20289;-77
2021/09/30 14:13:45;;;;;;;1.52;0.40;;;;;20.00;102134.00;;;;5036983;28;20260;-77
2021/09/30 14:16:14;;;;;;;1.42;0.68;;;;;20.00;102131.00;;;;5043248;28;20235;-77
2021/09/30 14:18:41;;;;;;;1.67;0.40;;;;;20.00;102127.00;;;;5048996;28;20203;-77
2021/09/30 14:21:09;;;;;;;4.05;0.40;;;;;20.00;102128.00;;;;5037817;28;20246;-79
2021/09/30 14:23:37;;;;;;;1.80;0.50;;;;;20.00;102114.00;;;;5034304;28;20228;-79
2021/09/30 14:26:04;;;;;;;2.40;0.50;;;;;20.00;102116.00;;;;5045429;28;20208;-78
2021/09/30 14:28:31;;;;;;;1.67;0.52;;;;;20.00;102120.00;;;;5031467;28;20208;-77
2021/09/30 14:30:59;;;;;;;2.95;0.35;;;;;20.10;102112.00;;;;5030557;28;20200;-77
2021/09/30 14:33:30;;;;;;;2.15;0.40;;;;;20.10;102119.00;;;;5045853;28;20199;-77
2021/09/30 14:35:58;;;;;;;2.22;0.82;;;;;20.10;102112.00;;;;5048460;28;20200;-77
2021/09/30 14:38:25;;;;;;;3.03;0.65;;;;;20.10;102107.00;;;;5041003;28;20224;-77
2021/09/30 14:40:53;;;;;;;3.60;0.60;;;;;20.10;102105.00;;;;5036909;28;20199;-77
2021/09/30 14:43:23;;;;;;;3.33;0.55;;;;;20.10;102106.00;;;;5048900;28;20227;-76
2021/09/30 14:45:51;;;;;;;2.33;0.57;;;;;20.10;102106.00;;;;5035036;28;20195;-78
2021/09/30 14:48:19;;;;;;;2.35;0.47;;;;;20.10;102094.00;;;;5031428;28;20200;-78
2021/09/30 14:50:48;;;;;;;2.85;0.65;;;;;20.10;102098.00;;;;5028338;28;20700;-77
2021/09/30 14:53:15;;;;;;;0.80;0.35;;;;;20.00;102091.00;;;;5031617;28;20197;-77
2021/09/30 14:55:42;;;;;;;2.90;0.60;;;;;20.00;102091.00;;;;5047855;28;20214;-78
2021/09/30 14:58:10;;;;;;;1.92;0.30;;;;;20.00;102085.00;;;;5036934;28;20211;-78